Portada
METAR-TAF:

METAR-TAF

Aeroports :

Lanzhou, Xina

latitud: 36-02N, longitud: 103-52E, altitud: 1518 m

Observació

L'informe es va fer fa 59 minuts, a les 10:00 UTC
Vent 4 kt del Sud-Est, variant entre Est/Sud-Est i Sud
Temperatura 4°C
Humitat 70%
Pressió 1021 hPa
Visibilitat 10 km o més
Núvols disperses a una alçada de 1600 ft

METAR: ZLLL 271000Z 14002MPS 110V170 9999 SCT016 04/M01 Q1021 NOSIG

Hora: 18:59 (10:59 UTC)

Pronòstic

L'informe es va fer fa 7 hores i 57 minuts, a les 03:02 UTC
Pronòstic vàlid del 27 a les 06 UTC al 28 a les 06 UTC
Vent 6 kt del Sud/Sud-Oest
Visibilitat: 6000 m
Núvols disperses a una alçada de 4000 ft

TAF: ZLLL 270302Z 2706/2806 20003MPS 6000 SCT040 TX06/2708Z TNM08/2723Z

Observacions i pronòstics meteorològics de més de 4000 aeroports (METAR i TAF).

Les estacions disponibles són els punts grocs i vermells al mapa.

Posi el ratolí al punt desitjat per veure el nom de l'estació.

Feu clic per veure les observacions i els pronòstics meteorològics.

Per canviar el mapa: feu clic els botons verds amb una creu de color negre per apropar; al botó verd amb un guió per allunyar la imatge; o en les fletxes verdes per a mapes adjacents.


METAR-TAF: